LEST/SCQ METAR and TAF weather

Enter ICAO airport designator
Station Type Date Time Source
LEST METAR 2019/12/06 02:00 UTC NOAA

LEST 060200Z VRB02KT 9999 VCFG NSC 07/07 Q1023 BECMG 1500 BCFG


Station Type Date Time Source
LEST Decoded METAR 2019/12/06 02:00 UTC NOAA

Santiago / Labacolla, Spain (LEST) 42-54N 008-26W 367M
Dec 05, 2019 - 09:00 PM EST / 2019.12.06 0200 UTC
Wind: Variable at 2 MPH (2 KT):0
Visibility: greater than 7 mile(s):0
Weather: fog in the vicinity
Temperature: 44 F (7 C)
Dew Point: 44 F (7 C)
Relative Humidity: 100%
Pressure (altimeter): 30.21 in. Hg (1023 hPa)
ob: LEST 060200Z VRB02KT 9999 VCFG NSC 07/07 Q1023 BECMG 1500 BCFG
cycle: 2

Station Type Date Time Source
LEST TAF 2019/12/05 18:29 UTC NOAA

TAF LEST 051700Z 0518/0618 VRB05KT 9999 SCT025 TX12/0614Z TN03/0604Z
TEMPO 0600/0606 1500 BCFG BR BKN005 BKN010
TEMPO 0600/0606 0800 FG VV001

Example: see airport list